
Distance (Route):
Temperature : -26.1°C
Humidity : 0%
Pressure : 0hPa| Receiver | Frames | First received | Last received |
|---|---|---|---|
| KE7DJD | 200 | 2026-09-03 14:56:15 | 2026-09-03 16:06:13 |
| Receiver | Date | Latitude | Longitude | Direction | Speed | Altitude | Climb | Temperature | Humidity | Pressure | Voltage | Killtimer | Uptime | BKT | XDATA |
|---|---|---|---|---|---|---|---|---|---|---|---|---|---|---|---|
| KE7DJD | 2026-09-03 16:06:13 | 45.29888 | -116.83287 | 62° | 137km/h | 8437m | -5.1m/s | -26.1°C | 0% | 0hPa | 0V | 00:00:00 | 00:00:00 | 00:00:00 | |
| KE7DJD | 2026-09-03 16:05:52 | 45.29551 | -116.84233 | 63° | 144km/h | 8544m | -6.8m/s | -27.0°C | 0% | 0hPa | 0V | 00:00:00 | 00:00:00 | 00:00:00 | |
| KE7DJD | 2026-09-03 16:05:32 | 45.29197 | -116.85208 | 62° | 146km/h | 8658m | -4.5m/s | -27.6°C | 0% | 0hPa | 0V | 00:00:00 | 00:00:00 | 00:00:00 | |
| KE7DJD | 2026-09-03 16:05:11 | 45.28831 | -116.86134 | 63° | 157km/h | 8749m | -4.5m/s | -28.2°C | 0% | 0hPa | 0V | 00:00:00 | 00:00:00 | 00:00:00 | |
| KE7DJD | 2026-09-03 16:04:51 | 45.28420 | -116.87138 | 59° | 161km/h | 8855m | -4.9m/s | -29.1°C | 0% | 0hPa | 0V | 00:00:00 | 00:00:00 | 00:00:00 | |
| KE7DJD | 2026-09-03 16:04:30 | 45.28006 | -116.88118 | 63° | 159km/h | 8970m | -6.7m/s | -30.1°C | 0% | 0hPa | 0V | 00:00:00 | 00:00:00 | 00:00:00 | |
| KE7DJD | 2026-09-03 16:04:10 | 45.27601 | -116.89125 | 59° | 157km/h | 9110m | -6.7m/s | -31.3°C | 0% | 0hPa | 0V | 00:00:00 | 00:00:00 | 00:00:00 | |
| KE7DJD | 2026-09-03 16:03:49 | 45.27160 | -116.90105 | 58° | 166km/h | 9243m | -6.6m/s | -31.8°C | 0% | 0hPa | 0V | 00:00:00 | 00:00:00 | 00:00:00 | |
| KE7DJD | 2026-09-03 16:03:29 | 45.26675 | -116.91167 | 58° | 168km/h | 9382m | -6.7m/s | -32.7°C | 0% | 0hPa | 0V | 00:00:00 | 00:00:00 | 00:00:00 | |
| KE7DJD | 2026-09-03 16:03:08 | 45.26199 | -116.92251 | 61° | 172km/h | 9520m | -6.7m/s | -33.8°C | 0% | 0hPa | 0V | 00:00:00 | 00:00:00 | 00:00:00 | |
| KE7DJD | 2026-09-03 16:02:47 | 45.25784 | -116.93284 | 60° | 162km/h | 9651m | -6.5m/s | -34.9°C | 0% | 0hPa | 0V | 00:00:00 | 00:00:00 | 00:00:00 | |
| KE7DJD | 2026-09-03 16:02:27 | 45.25292 | -116.94318 | 54° | 170km/h | 9787m | -6.4m/s | -35.7°C | 0% | 0hPa | 0V | 00:00:00 | 00:00:00 | 00:00:00 | |
| KE7DJD | 2026-09-03 16:02:05 | 45.24724 | -116.95386 | 56° | 184km/h | 9925m | -6.4m/s | -36.6°C | 0% | 0hPa | 0V | 00:00:00 | 00:00:00 | 00:00:00 | |
| KE7DJD | 2026-09-03 16:01:45 | 45.24176 | -116.96497 | 55° | 175km/h | 10061m | -6.4m/s | -36.8°C | 0% | 0hPa | 0V | 00:00:00 | 00:00:00 | 00:00:00 | |
| KE7DJD | 2026-09-03 16:01:24 | 45.23634 | -116.97597 | 59° | 184km/h | 10198m | -6.7m/s | -37.3°C | 0% | 0hPa | 0V | 00:00:00 | 00:00:00 | 00:00:00 | |
| KE7DJD | 2026-09-03 16:00:42 | 45.22620 | -116.99972 | 63° | 192km/h | 10425m | -4.4m/s | -38.6°C | 0% | 0hPa | 0V | 00:00:00 | 00:00:00 | 00:00:00 | |
| KE7DJD | 2026-09-03 16:00:22 | 45.22149 | -117.01213 | 63° | 183km/h | 10516m | -4.5m/s | -38.7°C | 0% | 0hPa | 0V | 00:00:00 | 00:00:00 | 00:00:00 | |
| KE7DJD | 2026-09-03 16:00:01 | 45.21730 | -117.02373 | 64° | 183km/h | 10601m | -4.4m/s | -39.0°C | 0% | 0hPa | 0V | 00:00:00 | 00:00:00 | 00:00:00 | |
| KE7DJD | 2026-09-03 15:59:41 | 45.21307 | -117.03575 | 65° | 175km/h | 10691m | -4.4m/s | -39.7°C | 0% | 0hPa | 0V | 00:00:00 | 00:00:00 | 00:00:00 | |
| KE7DJD | 2026-09-03 15:59:20 | 45.20903 | -117.04693 | 63° | 175km/h | 10775m | -4.4m/s | -40.0°C | 0% | 0hPa | 0V | 00:00:00 | 00:00:00 | 00:00:00 | |
| KE7DJD | 2026-09-03 15:59:00 | 45.20439 | -117.05849 | 59° | 177km/h | 10862m | -4.1m/s | -40.5°C | 0% | 0hPa | 0V | 00:00:00 | 00:00:00 | 00:00:00 | |
| KE7DJD | 2026-09-03 15:58:39 | 45.19939 | -117.06936 | 57° | 183km/h | 10951m | -4.1m/s | -40.8°C | 0% | 0hPa | 0V | 00:00:00 | 00:00:00 | 00:00:00 | |
| KE7DJD | 2026-09-03 15:58:19 | 45.19385 | -117.08078 | 56° | 188km/h | 11045m | -4.4m/s | -41.6°C | 0% | 0hPa | 0V | 00:00:00 | 00:00:00 | 00:00:00 | |
| KE7DJD | 2026-09-03 15:57:58 | 45.18835 | -117.09153 | 53° | 181km/h | 11134m | -4.4m/s | -42.5°C | 0% | 0hPa | 0V | 00:00:00 | 00:00:00 | 00:00:00 | |
| KE7DJD | 2026-09-03 15:57:38 | 45.18237 | -117.10312 | 55° | 188km/h | 11234m | -4.7m/s | -43.4°C | 0% | 0hPa | 0V | 00:00:00 | 00:00:00 | 00:00:00 | |
| KE7DJD | 2026-09-03 15:57:17 | 45.17707 | -117.11407 | 57° | 184km/h | 11329m | -4.8m/s | -43.5°C | 0% | 0hPa | 0V | 00:00:00 | 00:00:00 | 00:00:00 | |
| KE7DJD | 2026-09-03 15:56:57 | 45.17201 | -117.12533 | 61° | 173km/h | 11431m | -4.7m/s | -44.0°C | 0% | 0hPa | 0V | 00:00:00 | 00:00:00 | 00:00:00 | |
| KE7DJD | 2026-09-03 15:56:32 | 45.16726 | -117.13795 | 64° | 162km/h | 11547m | -4.8m/s | -43.4°C | 0% | 0hPa | 0V | 00:00:00 | 00:00:00 | 00:00:00 | |
| KE7DJD | 2026-09-03 15:56:12 | 45.16322 | -117.14875 | 64° | 162km/h | 11652m | -5.1m/s | -43.6°C | 0% | 0hPa | 0V | 00:00:00 | 00:00:00 | 00:00:00 | |
| KE7DJD | 2026-09-03 15:55:51 | 45.15882 | -117.15936 | 60° | 166km/h | 11759m | -5.3m/s | -43.0°C | 0% | 0hPa | 0V | 00:00:00 | 00:00:00 | 00:00:00 | |
| KE7DJD | 2026-09-03 15:55:29 | 45.15449 | -117.16997 | 62° | 151km/h | 11872m | -5.2m/s | -42.8°C | 0% | 0hPa | 0V | 00:00:00 | 00:00:00 | 00:00:00 | |
| KE7DJD | 2026-09-03 15:55:09 | 45.15080 | -117.17994 | 62° | 151km/h | 11981m | -5.1m/s | -42.5°C | 0% | 0hPa | 0V | 00:00:00 | 00:00:00 | 00:00:00 | |
| KE7DJD | 2026-09-03 15:54:48 | 45.14753 | -117.18932 | 66° | 142km/h | 12087m | -4.9m/s | -42.9°C | 0% | 0hPa | 0V | 00:00:00 | 00:00:00 | 00:00:00 | |
| KE7DJD | 2026-09-03 15:54:27 | 45.14468 | -117.19850 | 68° | 139km/h | 12183m | -4.6m/s | -43.4°C | 0% | 0hPa | 0V | 00:00:00 | 00:00:00 | 00:00:00 | |
| KE7DJD | 2026-09-03 15:54:07 | 45.14198 | -117.20792 | 70° | 133km/h | 12278m | -4.4m/s | -43.7°C | 0% | 0hPa | 0V | 00:00:00 | 00:00:00 | 00:00:00 | |
| KE7DJD | 2026-09-03 15:53:46 | 45.13968 | -117.21665 | 70° | 126km/h | 12368m | -4.4m/s | -43.5°C | 0% | 0hPa | 0V | 00:00:00 | 00:00:00 | 00:00:00 | |
| KE7DJD | 2026-09-03 15:53:26 | 45.13741 | -117.22526 | 71° | 119km/h | 12461m | -4.2m/s | -43.4°C | 0% | 0hPa | 0V | 00:00:00 | 00:00:00 | 00:00:00 | |
| KE7DJD | 2026-09-03 15:53:05 | 45.13538 | -117.23310 | 71° | 115km/h | 12546m | -4.4m/s | -43.8°C | 0% | 0hPa | 0V | 00:00:00 | 00:00:00 | 00:00:00 | |
| KE7DJD | 2026-09-03 15:52:45 | 45.13318 | -117.24101 | 68° | 110km/h | 12638m | -4.3m/s | -44.2°C | 0% | 0hPa | 0V | 00:00:00 | 00:00:00 | 00:00:00 | |
| KE7DJD | 2026-09-03 15:52:23 | 45.13082 | -117.24837 | 64° | 104km/h | 12729m | -4.0m/s | -44.5°C | 0% | 0hPa | 0V | 00:00:00 | 00:00:00 | 00:00:00 | |
| KE7DJD | 2026-09-03 15:52:03 | 45.12833 | -117.25488 | 60° | 104km/h | 12815m | -4.4m/s | -44.7°C | 0% | 0hPa | 0V | 00:00:00 | 00:00:00 | 00:00:00 | |
| KE7DJD | 2026-09-03 15:51:42 | 45.12536 | -117.26171 | 59° | 110km/h | 12907m | -4.5m/s | -44.5°C | 0% | 0hPa | 0V | 00:00:00 | 00:00:00 | 00:00:00 | |
| KE7DJD | 2026-09-03 15:51:22 | 45.12226 | -117.26855 | 62° | 117km/h | 12995m | -4.3m/s | -44.0°C | 0% | 0hPa | 0V | 00:00:00 | 00:00:00 | 00:00:00 | |
| KE7DJD | 2026-09-03 15:51:02 | 45.11967 | -117.27653 | 70° | 119km/h | 13088m | -4.7m/s | -42.6°C | 0% | 0hPa | 0V | 00:00:00 | 00:00:00 | 00:00:00 | |
| KE7DJD | 2026-09-03 15:50:21 | 45.11560 | -117.29348 | 75° | 126km/h | 13277m | -4.5m/s | -43.7°C | 0% | 0hPa | 0V | 00:00:00 | 00:00:00 | 00:00:00 | |
| KE7DJD | 2026-09-03 15:50:00 | 45.11402 | -117.30206 | 78° | 120km/h | 13370m | -4.7m/s | -43.6°C | 0% | 0hPa | 0V | 00:00:00 | 00:00:00 | 00:00:00 | |
| KE7DJD | 2026-09-03 15:49:40 | 45.11263 | -117.31073 | 79° | 115km/h | 13472m | -4.9m/s | -44.2°C | 0% | 0hPa | 0V | 00:00:00 | 00:00:00 | 00:00:00 | |
| KE7DJD | 2026-09-03 15:49:19 | 45.11127 | -117.31869 | 77° | 115km/h | 13571m | -4.8m/s | -44.9°C | 0% | 0hPa | 0V | 00:00:00 | 00:00:00 | 00:00:00 | |
| KE7DJD | 2026-09-03 15:48:59 | 45.10964 | -117.32687 | 74° | 111km/h | 13675m | -4.9m/s | -45.5°C | 0% | 0hPa | 0V | 00:00:00 | 00:00:00 | 00:00:00 | |
| KE7DJD | 2026-09-03 15:48:38 | 45.10767 | -117.33448 | 68° | 104km/h | 13777m | -4.8m/s | -45.2°C | 0% | 0hPa | 0V | 00:00:00 | 00:00:00 | 00:00:00 | |
| KE7DJD | 2026-09-03 15:48:18 | 45.10553 | -117.34109 | 63° | 102km/h | 13877m | -5.2m/s | -44.6°C | 0% | 0hPa | 0V | 00:00:00 | 00:00:00 | 00:00:00 | |
| KE7DJD | 2026-09-03 15:47:57 | 45.10309 | -117.34769 | 65° | 106km/h | 13980m | -5.2m/s | -44.4°C | 0% | 0hPa | 0V | 00:00:00 | 00:00:00 | 00:00:00 | |
| KE7DJD | 2026-09-03 15:47:37 | 45.10062 | -117.35486 | 68° | 106km/h | 14091m | -5.4m/s | -44.8°C | 0% | 0hPa | 0V | 00:00:00 | 00:00:00 | 00:00:00 | |
| KE7DJD | 2026-09-03 15:47:16 | 45.09882 | -117.36160 | 73° | 97km/h | 14196m | -5.1m/s | -45.1°C | 0% | 0hPa | 0V | 00:00:00 | 00:00:00 | 00:00:00 | |
| KE7DJD | 2026-09-03 15:46:56 | 45.09733 | -117.36828 | 75° | 91km/h | 14307m | -5.2m/s | -45.5°C | 0% | 0hPa | 0V | 00:00:00 | 00:00:00 | 00:00:00 | |
| KE7DJD | 2026-09-03 15:46:34 | 45.09605 | -117.37436 | 72° | 82km/h | 14418m | -5.3m/s | -45.7°C | 0% | 0hPa | 0V | 00:00:00 | 00:00:00 | 00:00:00 | |
| KE7DJD | 2026-09-03 15:46:14 | 45.09481 | -117.37961 | 75° | 75km/h | 14526m | -5.2m/s | -46.1°C | 0% | 0hPa | 0V | 00:00:00 | 00:00:00 | 00:00:00 | |
| KE7DJD | 2026-09-03 15:45:54 | 45.09357 | -117.38482 | 69° | 75km/h | 14639m | -5.1m/s | -46.6°C | 0% | 0hPa | 0V | 00:00:00 | 00:00:00 | 00:00:00 | |
| KE7DJD | 2026-09-03 15:45:33 | 45.09223 | -117.38954 | 70° | 68km/h | 14744m | -5.2m/s | -47.2°C | 0% | 0hPa | 0V | 00:00:00 | 00:00:00 | 00:00:00 | |
| KE7DJD | 2026-09-03 15:45:13 | 45.09068 | -117.39433 | 67° | 75km/h | 14857m | -5.3m/s | -47.3°C | 0% | 0hPa | 0V | 00:00:00 | 00:00:00 | 00:00:00 | |
| KE7DJD | 2026-09-03 15:44:52 | 45.08896 | -117.39906 | 63° | 78km/h | 14964m | -5.3m/s | -47.1°C | 0% | 0hPa | 0V | 00:00:00 | 00:00:00 | 00:00:00 | |
| KE7DJD | 2026-09-03 15:44:32 | 45.08719 | -117.40422 | 66° | 75km/h | 15077m | -5.4m/s | -47.1°C | 0% | 0hPa | 0V | 00:00:00 | 00:00:00 | 00:00:00 | |
| KE7DJD | 2026-09-03 15:44:11 | 45.08576 | -117.40895 | 70° | 68km/h | 15189m | -5.6m/s | -46.6°C | 0% | 0hPa | 0V | 00:00:00 | 00:00:00 | 00:00:00 | |
| KE7DJD | 2026-09-03 15:43:51 | 45.08472 | -117.41344 | 76° | 60km/h | 15311m | -5.8m/s | -46.6°C | 0% | 0hPa | 0V | 00:00:00 | 00:00:00 | 00:00:00 | |
| KE7DJD | 2026-09-03 15:43:30 | 45.08395 | -117.41762 | 77° | 60km/h | 15430m | -6.1m/s | -47.5°C | 0% | 0hPa | 0V | 00:00:00 | 00:00:00 | 00:00:00 | |
| KE7DJD | 2026-09-03 15:43:10 | 45.08312 | -117.42182 | 73° | 57km/h | 15561m | -6.2m/s | -47.7°C | 0% | 0hPa | 0V | 00:00:00 | 00:00:00 | 00:00:00 | |
| KE7DJD | 2026-09-03 15:42:49 | 45.08178 | -117.42539 | 55° | 60km/h | 15689m | -6.5m/s | -47.7°C | 0% | 0hPa | 0V | 00:00:00 | 00:00:00 | 00:00:00 | |
| KE7DJD | 2026-09-03 15:42:29 | 45.07939 | -117.42894 | 44° | 69km/h | 15827m | -6.6m/s | -46.1°C | 0% | 0hPa | 0V | 00:00:00 | 00:00:00 | 00:00:00 | |
| KE7DJD | 2026-09-03 15:42:07 | 45.07641 | -117.43282 | 44° | 80km/h | 15968m | -6.7m/s | -46.2°C | 0% | 0hPa | 0V | 00:00:00 | 00:00:00 | 00:00:00 | |
| KE7DJD | 2026-09-03 15:41:47 | 45.07371 | -117.43713 | 54° | 82km/h | 16098m | -6.6m/s | -46.0°C | 0% | 0hPa | 0V | 00:00:00 | 00:00:00 | 00:00:00 | |
| KE7DJD | 2026-09-03 15:41:27 | 45.07148 | -117.44189 | 60° | 69km/h | 16233m | -6.4m/s | -43.9°C | 0% | 0hPa | 0V | 00:00:00 | 00:00:00 | 00:00:00 | |
| KE7DJD | 2026-09-03 15:41:06 | 45.07009 | -117.44594 | 67° | 57km/h | 16361m | -6.5m/s | -43.6°C | 0% | 0hPa | 0V | 00:00:00 | 00:00:00 | 00:00:00 | |
| KE7DJD | 2026-09-03 15:40:46 | 45.06901 | -117.44981 | 69° | 55km/h | 16494m | -6.4m/s | -44.1°C | 0% | 0hPa | 0V | 00:00:00 | 00:00:00 | 00:00:00 | |
| KE7DJD | 2026-09-03 15:40:25 | 45.06795 | -117.45287 | 62° | 40km/h | 16631m | -6.4m/s | -43.7°C | 0% | 0hPa | 0V | 00:00:00 | 00:00:00 | 00:00:00 | |
| KE7DJD | 2026-09-03 15:40:05 | 45.06672 | -117.45540 | 56° | 46km/h | 16765m | -6.6m/s | -44.5°C | 0% | 0hPa | 0V | 00:00:00 | 00:00:00 | 00:00:00 | |
| KE7DJD | 2026-09-03 15:39:44 | 45.06556 | -117.45840 | 71° | 49km/h | 16901m | -7.0m/s | -44.6°C | 0% | 0hPa | 0V | 00:00:00 | 00:00:00 | 00:00:00 | |
| KE7DJD | 2026-09-03 15:39:24 | 45.06473 | -117.46171 | 75° | 35km/h | 17055m | -7.5m/s | -43.2°C | 0% | 0hPa | 0V | 00:00:00 | 00:00:00 | 00:00:00 | |
| KE7DJD | 2026-09-03 15:39:03 | 45.06437 | -117.46371 | 70° | 24km/h | 17205m | -7.5m/s | -42.5°C | 0% | 0hPa | 0V | 00:00:00 | 00:00:00 | 00:00:00 | |
| KE7DJD | 2026-09-03 15:38:43 | 45.06380 | -117.46492 | 42° | 18km/h | 17364m | -7.3m/s | -43.0°C | 0% | 0hPa | 0V | 00:00:00 | 00:00:00 | 00:00:00 | |
| KE7DJD | 2026-09-03 15:38:22 | 45.06296 | -117.46558 | 21° | 29km/h | 17513m | -7.3m/s | -43.8°C | 0% | 0hPa | 0V | 00:00:00 | 00:00:00 | 00:00:00 | |
| KE7DJD | 2026-09-03 15:37:41 | 45.05954 | -117.46843 | 40° | 49km/h | 17827m | -7.8m/s | -44.9°C | 0% | 0hPa | 0V | 00:00:00 | 00:00:00 | 00:00:00 | |
| KE7DJD | 2026-09-03 15:37:21 | 45.05790 | -117.47104 | 55° | 42km/h | 17998m | -8.1m/s | -44.4°C | 0% | 0hPa | 0V | 00:00:00 | 00:00:00 | 00:00:00 | |
| KE7DJD | 2026-09-03 15:36:59 | 45.05684 | -117.47297 | 50° | 26km/h | 18171m | -7.9m/s | -44.1°C | 0% | 0hPa | 0V | 00:00:00 | 00:00:00 | 00:00:00 | |
| KE7DJD | 2026-09-03 15:36:39 | 45.05604 | -117.47452 | 52° | 24km/h | 18338m | -7.9m/s | -43.9°C | 0% | 0hPa | 0V | 00:00:00 | 00:00:00 | 00:00:00 | |
| KE7DJD | 2026-09-03 15:36:19 | 45.05499 | -117.47548 | 26° | 29km/h | 18517m | -8.4m/s | -44.1°C | 0% | 0hPa | 0V | 00:00:00 | 00:00:00 | 00:00:00 | |
| KE7DJD | 2026-09-03 15:35:58 | 45.05375 | -117.47640 | 34° | 33km/h | 18689m | -8.3m/s | -45.0°C | 0% | 0hPa | 0V | 00:00:00 | 00:00:00 | 00:00:00 | |
| KE7DJD | 2026-09-03 15:35:38 | 45.05246 | -117.47806 | 51° | 35km/h | 18868m | -10.2m/s | -44.4°C | 0% | 0hPa | 0V | 00:00:00 | 00:00:00 | 00:00:00 | |
| KE7DJD | 2026-09-03 15:35:17 | 45.05162 | -117.47944 | 82° | 11km/h | 19050m | -9.9m/s | -45.1°C | 0% | 0hPa | 0V | 00:00:00 | 00:00:00 | 00:00:00 | |
| KE7DJD | 2026-09-03 15:34:57 | 45.05111 | -117.47976 | 328° | 27km/h | 19268m | -9.5m/s | -46.4°C | 0% | 0hPa | 0V | 00:00:00 | 00:00:00 | 00:00:00 | |
| KE7DJD | 2026-09-03 15:34:36 | 45.05050 | -117.47935 | 192° | 7km/h | 19483m | -12.2m/s | -47.8°C | 0% | 0hPa | 0V | 00:00:00 | 00:00:00 | 00:00:00 | |
| KE7DJD | 2026-09-03 15:34:16 | 45.04922 | -117.47960 | 12° | 35km/h | 19707m | -9.2m/s | -48.7°C | 0% | 0hPa | 0V | 00:00:00 | 00:00:00 | 00:00:00 | |
| KE7DJD | 2026-09-03 15:33:55 | 45.04774 | -117.47992 | 22° | 31km/h | 19914m | -11.8m/s | -49.4°C | 0% | 0hPa | 0V | 00:00:00 | 00:00:00 | 00:00:00 | |
| KE7DJD | 2026-09-03 15:33:35 | 45.04636 | -117.48103 | 45° | 22km/h | 20155m | -12.1m/s | -48.8°C | 0% | 0hPa | 0V | 00:00:00 | 00:00:00 | 00:00:00 | |
| KE7DJD | 2026-09-03 15:33:14 | 45.04612 | -117.48250 | 210° | 5km/h | 20373m | 6.0m/s | -47.5°C | 0% | 0hPa | 0V | 00:00:00 | 00:00:00 | 00:00:00 | |
| KE7DJD | 2026-09-03 15:32:54 | 45.04562 | -117.48405 | 76° | 31km/h | 20224m | 4.1m/s | -48.0°C | 0% | 0hPa | 0V | 00:00:00 | 00:00:00 | 00:00:00 | |
| KE7DJD | 2026-09-03 15:32:33 | 45.04473 | -117.48552 | 49° | 27km/h | 20082m | 7.6m/s | -48.8°C | 0% | 0hPa | 0V | 00:00:00 | 00:00:00 | 00:00:00 | |
| KE7DJD | 2026-09-03 15:32:12 | 45.04353 | -117.48687 | 7° | 27km/h | 19944m | 7.1m/s | -49.0°C | 0% | 0hPa | 0V | 00:00:00 | 00:00:00 | 00:00:00 | |
| KE7DJD | 2026-09-03 15:31:52 | 45.04204 | -117.48741 | 2° | 24km/h | 19812m | 6.1m/s | -49.1°C | 0% | 0hPa | 0V | 00:00:00 | 00:00:00 | 00:00:00 | |
| KE7DJD | 2026-09-03 15:31:31 | 45.04067 | -117.48762 | 26° | 20km/h | 19684m | 3.6m/s | -48.3°C | 0% | 0hPa | 0V | 00:00:00 | 00:00:00 | 00:00:00 | |
| KE7DJD | 2026-09-03 15:31:10 | 45.03961 | -117.48791 | 22° | 20km/h | 19553m | 8.4m/s | -47.9°C | 0% | 0hPa | 0V | 00:00:00 | 00:00:00 | 00:00:00 | |
| KE7DJD | 2026-09-03 15:30:50 | 45.03882 | -117.48783 | 298° | 11km/h | 19429m | 7.7m/s | -47.2°C | 0% | 0hPa | 0V | 00:00:00 | 00:00:00 | 00:00:00 | |
| KE7DJD | 2026-09-03 15:30:30 | 45.03833 | -117.48766 | 3° | 16km/h | 19299m | 3.1m/s | -46.2°C | 0% | 0hPa | 0V | 00:00:00 | 00:00:00 | 00:00:00 | |
| KE7DJD | 2026-09-03 15:30:09 | 45.03814 | -117.48745 | 10° | 15km/h | 19159m | 7.8m/s | -45.4°C | 0% | 0hPa | 0V | 00:00:00 | 00:00:00 | 00:00:00 | |
| KE7DJD | 2026-09-03 15:29:49 | 45.03754 | -117.48823 | 286° | 13km/h | 18998m | 10.7m/s | -44.5°C | 0% | 0hPa | 0V | 00:00:00 | 00:00:00 | 00:00:00 | |
| KE7DJD | 2026-09-03 15:29:28 | 45.03690 | -117.48940 | 53° | 31km/h | 18864m | 6.0m/s | -44.3°C | 0% | 0hPa | 0V | 00:00:00 | 00:00:00 | 00:00:00 | |
| KE7DJD | 2026-09-03 15:29:08 | 45.03559 | -117.49115 | 35° | 38km/h | 18747m | 5.1m/s | -45.2°C | 0% | 0hPa | 0V | 00:00:00 | 00:00:00 | 00:00:00 | |
| KE7DJD | 2026-09-03 15:28:47 | 45.03429 | -117.49261 | 37° | 33km/h | 18631m | 6.0m/s | -44.6°C | 0% | 0hPa | 0V | 00:00:00 | 00:00:00 | 00:00:00 | |
| KE7DJD | 2026-09-03 15:28:27 | 45.03300 | -117.49391 | 44° | 24km/h | 18498m | 8.0m/s | -44.3°C | 0% | 0hPa | 0V | 00:00:00 | 00:00:00 | 00:00:00 | |
| KE7DJD | 2026-09-03 15:28:06 | 45.03201 | -117.49525 | 60° | 33km/h | 18380m | 7.4m/s | -44.6°C | 0% | 0hPa | 0V | 00:00:00 | 00:00:00 | 00:00:00 | |
| KE7DJD | 2026-09-03 15:27:46 | 45.03112 | -117.49684 | 33° | 35km/h | 18249m | 3.0m/s | -45.3°C | 0% | 0hPa | 0V | 00:00:00 | 00:00:00 | 00:00:00 | |
| KE7DJD | 2026-09-03 15:27:25 | 45.02999 | -117.49882 | 49° | 35km/h | 18125m | 8.3m/s | -45.3°C | 0% | 0hPa | 0V | 00:00:00 | 00:00:00 | 00:00:00 | |
| KE7DJD | 2026-09-03 15:27:05 | 45.02847 | -117.50133 | 48° | 40km/h | 17991m | 4.8m/s | -46.0°C | 0% | 0hPa | 0V | 00:00:00 | 00:00:00 | 00:00:00 | |
| KE7DJD | 2026-09-03 15:26:44 | 45.02642 | -117.50342 | 36° | 44km/h | 17858m | 5.2m/s | -45.5°C | 0% | 0hPa | 0V | 00:00:00 | 00:00:00 | 00:00:00 | |
| KE7DJD | 2026-09-03 15:26:23 | 45.02459 | -117.50465 | 24° | 31km/h | 17729m | 3.5m/s | -44.6°C | 0% | 0hPa | 0V | 00:00:00 | 00:00:00 | 00:00:00 | |
| KE7DJD | 2026-09-03 15:26:03 | 45.02305 | -117.50534 | 333° | 24km/h | 17595m | 8.5m/s | -43.9°C | 0% | 0hPa | 0V | 00:00:00 | 00:00:00 | 00:00:00 | |
| KE7DJD | 2026-09-03 15:25:42 | 45.02194 | -117.50558 | 50° | 18km/h | 17465m | 4.0m/s | -43.7°C | 0% | 0hPa | 0V | 00:00:00 | 00:00:00 | 00:00:00 | |
| KE7DJD | 2026-09-03 15:25:22 | 45.02123 | -117.50651 | 38° | 22km/h | 17331m | 6.8m/s | -43.3°C | 0% | 0hPa | 0V | 00:00:00 | 00:00:00 | 00:00:00 | |
| KE7DJD | 2026-09-03 15:25:01 | 45.02079 | -117.50829 | 98° | 20km/h | 17203m | 7.3m/s | -44.0°C | 0% | 0hPa | 0V | 00:00:00 | 00:00:00 | 00:00:00 | |
| KE7DJD | 2026-09-03 15:24:41 | 45.02053 | -117.51078 | 84° | 40km/h | 17090m | 6.5m/s | -44.2°C | 0% | 0hPa | 0V | 00:00:00 | 00:00:00 | 00:00:00 | |
| KE7DJD | 2026-09-03 15:24:20 | 45.01996 | -117.51408 | 90° | 49km/h | 16971m | 8.5m/s | -45.1°C | 0% | 0hPa | 0V | 00:00:00 | 00:00:00 | 00:00:00 | |
| KE7DJD | 2026-09-03 15:24:00 | 45.01903 | -117.51748 | 60° | 46km/h | 16836m | 4.5m/s | -44.7°C | 0% | 0hPa | 0V | 00:00:00 | 00:00:00 | 00:00:00 | |
| KE7DJD | 2026-09-03 15:23:39 | 45.01772 | -117.52009 | 55° | 42km/h | 16694m | 7.9m/s | -44.2°C | 0% | 0hPa | 0V | 00:00:00 | 00:00:00 | 00:00:00 | |
| KE7DJD | 2026-09-03 15:23:19 | 45.01660 | -117.52278 | 71° | 46km/h | 16561m | 4.8m/s | -44.2°C | 0% | 0hPa | 0V | 00:00:00 | 00:00:00 | 00:00:00 | |
| KE7DJD | 2026-09-03 15:22:58 | 45.01562 | -117.52604 | 67° | 57km/h | 16432m | 9.3m/s | -44.4°C | 0% | 0hPa | 0V | 00:00:00 | 00:00:00 | 00:00:00 | |
| KE7DJD | 2026-09-03 15:22:38 | 45.01409 | -117.52983 | 51° | 66km/h | 16280m | 6.3m/s | -44.7°C | 0% | 0hPa | 0V | 00:00:00 | 00:00:00 | 00:00:00 | |
| KE7DJD | 2026-09-03 15:22:17 | 45.01186 | -117.53403 | 56° | 78km/h | 16136m | 4.0m/s | -46.0°C | 0% | 0hPa | 0V | 00:00:00 | 00:00:00 | 00:00:00 | |
| KE7DJD | 2026-09-03 15:21:57 | 45.00905 | -117.53839 | 39° | 71km/h | 15979m | 7.8m/s | -46.1°C | 0% | 0hPa | 0V | 00:00:00 | 00:00:00 | 00:00:00 | |
| KE7DJD | 2026-09-03 15:21:35 | 45.00568 | -117.54167 | 34° | 66km/h | 15836m | 7.9m/s | -45.8°C | 0% | 0hPa | 0V | 00:00:00 | 00:00:00 | 00:00:00 | |
| KE7DJD | 2026-09-03 15:21:15 | 45.00294 | -117.54471 | 35° | 57km/h | 15708m | 4.9m/s | -46.0°C | 0% | 0hPa | 0V | 00:00:00 | 00:00:00 | 00:00:00 | |
| KE7DJD | 2026-09-03 15:20:55 | 45.00063 | -117.54794 | 46° | 47km/h | 15573m | 6.7m/s | -46.6°C | 0% | 0hPa | 0V | 00:00:00 | 00:00:00 | 00:00:00 | |
| KE7DJD | 2026-09-03 15:20:34 | 44.99961 | -117.55117 | 73° | 57km/h | 15429m | 6.4m/s | -46.7°C | 0% | 0hPa | 0V | 00:00:00 | 00:00:00 | 00:00:00 | |
| KE7DJD | 2026-09-03 15:20:14 | 44.99906 | -117.55538 | 83° | 51km/h | 15281m | 3.3m/s | -45.9°C | 0% | 0hPa | 0V | 00:00:00 | 00:00:00 | 00:00:00 | |
| KE7DJD | 2026-09-03 15:19:53 | 44.99848 | -117.55918 | 73° | 46km/h | 15141m | 10.7m/s | -45.0°C | 0% | 0hPa | 0V | 00:00:00 | 00:00:00 | 00:00:00 | |
| KE7DJD | 2026-09-03 15:19:33 | 44.99753 | -117.56357 | 75° | 60km/h | 15012m | 5.9m/s | -45.4°C | 0% | 0hPa | 0V | 00:00:00 | 00:00:00 | 00:00:00 | |
| KE7DJD | 2026-09-03 15:19:12 | 44.99617 | -117.56825 | 57° | 78km/h | 14893m | 7.5m/s | -45.9°C | 0% | 0hPa | 0V | 00:00:00 | 00:00:00 | 00:00:00 | |
| KE7DJD | 2026-09-03 15:18:52 | 44.99415 | -117.57348 | 61° | 84km/h | 14759m | 5.2m/s | -45.8°C | 0% | 0hPa | 0V | 00:00:00 | 00:00:00 | 00:00:00 | |
| KE7DJD | 2026-09-03 15:18:31 | 44.99234 | -117.57860 | 69° | 78km/h | 14632m | 5.7m/s | -45.9°C | 0% | 0hPa | 0V | 00:00:00 | 00:00:00 | 00:00:00 | |
| KE7DJD | 2026-09-03 15:18:11 | 44.99075 | -117.58377 | 75° | 82km/h | 14495m | 6.8m/s | -45.4°C | 0% | 0hPa | 0V | 00:00:00 | 00:00:00 | 00:00:00 | |
| KE7DJD | 2026-09-03 15:17:50 | 44.98948 | -117.58970 | 76° | 86km/h | 14352m | 7.6m/s | -44.9°C | 0% | 0hPa | 0V | 00:00:00 | 00:00:00 | 00:00:00 | |
| KE7DJD | 2026-09-03 15:17:30 | 44.98822 | -117.59563 | 71° | 97km/h | 14221m | 7.4m/s | -44.1°C | 0% | 0hPa | 0V | 00:00:00 | 00:00:00 | 00:00:00 | |
| KE7DJD | 2026-09-03 15:17:09 | 44.98688 | -117.60192 | 76° | 95km/h | 14074m | 8.1m/s | -43.6°C | 0% | 0hPa | 0V | 00:00:00 | 00:00:00 | 00:00:00 | |
| KE7DJD | 2026-09-03 15:16:49 | 44.98528 | -117.60923 | 66° | 113km/h | 13918m | 4.5m/s | -44.2°C | 0% | 0hPa | 0V | 00:00:00 | 00:00:00 | 00:00:00 | |
| KE7DJD | 2026-09-03 15:16:27 | 44.98319 | -117.61697 | 72° | 115km/h | 13768m | 4.7m/s | -44.1°C | 0% | 0hPa | 0V | 00:00:00 | 00:00:00 | 00:00:00 | |
| KE7DJD | 2026-09-03 15:16:07 | 44.98178 | -117.62497 | 79° | 119km/h | 13638m | 7.7m/s | -45.6°C | 0% | 0hPa | 0V | 00:00:00 | 00:00:00 | 00:00:00 | |
| KE7DJD | 2026-09-03 15:15:47 | 44.98050 | -117.63335 | 83° | 104km/h | 13502m | 10.5m/s | -44.6°C | 0% | 0hPa | 0V | 00:00:00 | 00:00:00 | 00:00:00 | |
| KE7DJD | 2026-09-03 15:15:26 | 44.97948 | -117.64197 | 83° | 128km/h | 13355m | 5.8m/s | -43.7°C | 0% | 0hPa | 0V | 00:00:00 | 00:00:00 | 00:00:00 | |
| KE7DJD | 2026-09-03 15:15:06 | 44.97840 | -117.65143 | 77° | 133km/h | 13214m | 4.3m/s | -43.4°C | 0% | 0hPa | 0V | 00:00:00 | 00:00:00 | 00:00:00 | |
| KE7DJD | 2026-09-03 15:14:45 | 44.97673 | -117.66004 | 74° | 124km/h | 13081m | 5.6m/s | -43.8°C | 0% | 0hPa | 0V | 00:00:00 | 00:00:00 | 00:00:00 | |
| KE7DJD | 2026-09-03 15:14:25 | 44.97417 | -117.66833 | 71° | 108km/h | 12958m | 7.1m/s | -44.3°C | 0% | 0hPa | 0V | 00:00:00 | 00:00:00 | 00:00:00 | |
| KE7DJD | 2026-09-03 15:14:04 | 44.97176 | -117.67561 | 64° | 120km/h | 12836m | 6.6m/s | -45.2°C | 0% | 0hPa | 0V | 00:00:00 | 00:00:00 | 00:00:00 | |
| KE7DJD | 2026-09-03 15:13:44 | 44.96929 | -117.68407 | 71° | 110km/h | 12710m | 5.7m/s | -44.9°C | 0% | 0hPa | 0V | 00:00:00 | 00:00:00 | 00:00:00 | |
| KE7DJD | 2026-09-03 15:13:23 | 44.96743 | -117.69247 | 74° | 126km/h | 12572m | 10.3m/s | -44.5°C | 0% | 0hPa | 0V | 00:00:00 | 00:00:00 | 00:00:00 | |
| KE7DJD | 2026-09-03 15:12:42 | 44.96302 | -117.71095 | 70° | 137km/h | 12306m | 8.9m/s | -44.0°C | 0% | 0hPa | 0V | 00:00:00 | 00:00:00 | 00:00:00 | |
| KE7DJD | 2026-09-03 15:12:22 | 44.96020 | -117.72137 | 64° | 150km/h | 12138m | 8.8m/s | -43.4°C | 0% | 0hPa | 0V | 00:00:00 | 00:00:00 | 00:00:00 | |
| KE7DJD | 2026-09-03 15:12:01 | 44.95716 | -117.73124 | 62° | 159km/h | 11979m | 9.1m/s | -42.3°C | 0% | 0hPa | 0V | 00:00:00 | 00:00:00 | 00:00:00 | |
| KE7DJD | 2026-09-03 15:11:41 | 44.95333 | -117.74174 | 66° | 151km/h | 11830m | 6.7m/s | -42.3°C | 0% | 0hPa | 0V | 00:00:00 | 00:00:00 | 00:00:00 | |
| KE7DJD | 2026-09-03 15:11:20 | 44.94927 | -117.75192 | 64° | 164km/h | 11692m | 7.4m/s | -43.1°C | 0% | 0hPa | 0V | 00:00:00 | 00:00:00 | 00:00:00 | |
| KE7DJD | 2026-09-03 15:11:00 | 44.94507 | -117.76316 | 55° | 181km/h | 11576m | 5.0m/s | -43.1°C | 0% | 0hPa | 0V | 00:00:00 | 00:00:00 | 00:00:00 | |
| KE7DJD | 2026-09-03 15:10:39 | 44.94158 | -117.77460 | 67° | 144km/h | 11401m | 5.9m/s | -42.6°C | 0% | 0hPa | 0V | 00:00:00 | 00:00:00 | 00:00:00 | |
| KE7DJD | 2026-09-03 15:10:18 | 44.93765 | -117.78583 | 55° | 206km/h | 11232m | 9.4m/s | -42.4°C | 0% | 0hPa | 0V | 00:00:00 | 00:00:00 | 00:00:00 | |
| KE7DJD | 2026-09-03 15:09:58 | 44.93256 | -117.79740 | 54° | 175km/h | 11086m | 3.0m/s | -41.8°C | 0% | 0hPa | 0V | 00:00:00 | 00:00:00 | 00:00:00 | |
| KE7DJD | 2026-09-03 15:09:37 | 44.92731 | -117.80841 | 49° | 177km/h | 10945m | 4.6m/s | -40.8°C | 0% | 0hPa | 0V | 00:00:00 | 00:00:00 | 00:00:00 | |
| KE7DJD | 2026-09-03 15:09:17 | 44.92225 | -117.81985 | 63° | 151km/h | 10789m | 5.9m/s | -39.9°C | 0% | 0hPa | 0V | 00:00:00 | 00:00:00 | 00:00:00 | |
| KE7DJD | 2026-09-03 15:08:56 | 44.91803 | -117.83174 | 60° | 193km/h | 10634m | 5.5m/s | -39.3°C | 0% | 0hPa | 0V | 00:00:00 | 00:00:00 | 00:00:00 | |
| KE7DJD | 2026-09-03 15:08:35 | 44.91388 | -117.84329 | 62° | 168km/h | 10497m | 5.6m/s | -38.3°C | 0% | 0hPa | 0V | 00:00:00 | 00:00:00 | 00:00:00 | |
| KE7DJD | 2026-09-03 15:08:15 | 44.90911 | -117.85546 | 57° | 186km/h | 10348m | 7.8m/s | -38.4°C | 0% | 0hPa | 0V | 00:00:00 | 00:00:00 | 00:00:00 | |
| KE7DJD | 2026-09-03 15:07:55 | 44.90360 | -117.86739 | 60° | 195km/h | 10182m | 7.6m/s | -37.6°C | 0% | 0hPa | 0V | 00:00:00 | 00:00:00 | 00:00:00 | |
| KE7DJD | 2026-09-03 15:07:34 | 44.89806 | -117.87771 | 54° | 172km/h | 10035m | 10.0m/s | -37.4°C | 0% | 0hPa | 0V | 00:00:00 | 00:00:00 | 00:00:00 | |
| KE7DJD | 2026-09-03 15:07:14 | 44.89233 | -117.88808 | 57° | 184km/h | 9902m | 10.0m/s | -36.4°C | 0% | 0hPa | 0V | 00:00:00 | 00:00:00 | 00:00:00 | |
| KE7DJD | 2026-09-03 15:06:53 | 44.88717 | -117.89846 | 60° | 159km/h | 9758m | 7.6m/s | -35.7°C | 0% | 0hPa | 0V | 00:00:00 | 00:00:00 | 00:00:00 | |
| KE7DJD | 2026-09-03 15:06:33 | 44.88196 | -117.90887 | 65° | 155km/h | 9612m | 8.7m/s | -34.7°C | 0% | 0hPa | 0V | 00:00:00 | 00:00:00 | 00:00:00 | |
| KE7DJD | 2026-09-03 15:06:12 | 44.87769 | -117.91973 | 58° | 150km/h | 9464m | 5.7m/s | -33.7°C | 0% | 0hPa | 0V | 00:00:00 | 00:00:00 | 00:00:00 | |
| KE7DJD | 2026-09-03 15:05:51 | 44.87334 | -117.92946 | 56° | 155km/h | 9345m | 3.7m/s | -32.7°C | 0% | 0hPa | 0V | 00:00:00 | 00:00:00 | 00:00:00 | |
| KE7DJD | 2026-09-03 15:05:30 | 44.86897 | -117.94022 | 59° | 179km/h | 9194m | 10.1m/s | -31.3°C | 0% | 0hPa | 0V | 00:00:00 | 00:00:00 | 00:00:00 | |
| KE7DJD | 2026-09-03 15:05:10 | 44.86487 | -117.95029 | 62° | 164km/h | 9062m | 7.3m/s | -30.5°C | 0% | 0hPa | 0V | 00:00:00 | 00:00:00 | 00:00:00 | |
| KE7DJD | 2026-09-03 15:04:50 | 44.86074 | -117.96105 | 63° | 155km/h | 8914m | 6.0m/s | -29.2°C | 0% | 0hPa | 0V | 00:00:00 | 00:00:00 | 00:00:00 | |
| KE7DJD | 2026-09-03 15:04:29 | 44.85703 | -117.97089 | 61° | 153km/h | 8797m | 12.2m/s | -28.7°C | 0% | 0hPa | 0V | 00:00:00 | 00:00:00 | 00:00:00 | |
| KE7DJD | 2026-09-03 15:04:09 | 44.85337 | -117.98087 | 69° | 130km/h | 8644m | 6.0m/s | -27.7°C | 0% | 0hPa | 0V | 00:00:00 | 00:00:00 | 00:00:00 | |
| KE7DJD | 2026-09-03 15:03:48 | 44.84998 | -117.98997 | 72° | 159km/h | 8500m | 5.9m/s | -26.6°C | 0% | 0hPa | 0V | 00:00:00 | 00:00:00 | 00:00:00 | |
| KE7DJD | 2026-09-03 15:03:28 | 44.84652 | -117.99968 | 62° | 128km/h | 8360m | 4.7m/s | -25.5°C | 0% | 0hPa | 0V | 00:00:00 | 00:00:00 | 00:00:00 | |
| KE7DJD | 2026-09-03 15:03:07 | 44.84335 | -118.00844 | 65° | 141km/h | 8211m | 6.6m/s | -24.3°C | 0% | 0hPa | 0V | 00:00:00 | 00:00:00 | 00:00:00 | |
| KE7DJD | 2026-09-03 15:02:47 | 44.83997 | -118.01760 | 60° | 146km/h | 8056m | 7.9m/s | -23.3°C | 0% | 0hPa | 0V | 00:00:00 | 00:00:00 | 00:00:00 | |
| KE7DJD | 2026-09-03 15:02:26 | 44.83725 | -118.02625 | 70° | 148km/h | 7909m | 6.3m/s | -22.5°C | 0% | 0hPa | 0V | 00:00:00 | 00:00:00 | 00:00:00 | |
| KE7DJD | 2026-09-03 15:02:06 | 44.83442 | -118.03524 | 65° | 141km/h | 7754m | 5.8m/s | -21.5°C | 0% | 0hPa | 0V | 00:00:00 | 00:00:00 | 00:00:00 | |
| KE7DJD | 2026-09-03 15:01:45 | 44.83212 | -118.04269 | 66° | 128km/h | 7613m | 5.7m/s | -20.8°C | 0% | 0hPa | 0V | 00:00:00 | 00:00:00 | 00:00:00 | |
| KE7DJD | 2026-09-03 15:01:25 | 44.82942 | -118.04983 | 56° | 95km/h | 7462m | 6.6m/s | -20.0°C | 0% | 0hPa | 0V | 00:00:00 | 00:00:00 | 00:00:00 | |
| KE7DJD | 2026-09-03 15:00:43 | 44.82330 | -118.06142 | 42° | 119km/h | 7188m | 5.4m/s | -19.6°C | 0% | 0hPa | 0V | 00:00:00 | 00:00:00 | 00:00:00 | |
| KE7DJD | 2026-09-03 15:00:23 | 44.81973 | -118.06727 | 46° | 111km/h | 7047m | 8.0m/s | -18.2°C | 0% | 0hPa | 0V | 00:00:00 | 00:00:00 | 00:00:00 | |
| KE7DJD | 2026-09-03 15:00:02 | 44.81626 | -118.07313 | 56° | 110km/h | 6897m | 8.1m/s | -16.9°C | 0% | 0hPa | 0V | 00:00:00 | 00:00:00 | 00:00:00 | |
| KE7DJD | 2026-09-03 14:59:42 | 44.81260 | -118.07904 | 59° | 99km/h | 6757m | 6.5m/s | -15.7°C | 0% | 0hPa | 0V | 00:00:00 | 00:00:00 | 00:00:00 | |
| KE7DJD | 2026-09-03 14:59:21 | 44.80865 | -118.08544 | 61° | 113km/h | 6622m | 6.9m/s | -14.6°C | 0% | 0hPa | 0V | 00:00:00 | 00:00:00 | 00:00:00 | |
| KE7DJD | 2026-09-03 14:59:00 | 44.80518 | -118.09203 | 53° | 104km/h | 6484m | 7.0m/s | -13.9°C | 0% | 0hPa | 0V | 00:00:00 | 00:00:00 | 00:00:00 | |
| KE7DJD | 2026-09-03 14:58:40 | 44.80234 | -118.09892 | 60° | 117km/h | 6339m | 6.1m/s | -13.8°C | 0% | 0hPa | 0V | 00:00:00 | 00:00:00 | 00:00:00 | |
| KE7DJD | 2026-09-03 14:58:20 | 44.79978 | -118.10525 | 71° | 64km/h | 6187m | 9.0m/s | -13.0°C | 0% | 0hPa | 0V | 00:00:00 | 00:00:00 | 00:00:00 | |
| KE7DJD | 2026-09-03 14:57:59 | 44.79753 | -118.11099 | 66° | 95km/h | 6041m | 7.1m/s | -11.9°C | 0% | 0hPa | 0V | 00:00:00 | 00:00:00 | 00:00:00 | |
| KE7DJD | 2026-09-03 14:57:39 | 44.79545 | -118.11576 | 45° | 58km/h | 5904m | 7.5m/s | -10.8°C | 0% | 0hPa | 0V | 00:00:00 | 00:00:00 | 00:00:00 | |
| KE7DJD | 2026-09-03 14:57:18 | 44.79353 | -118.11999 | 58° | 55km/h | 5768m | 6.2m/s | -9.8°C | 0% | 0hPa | 0V | 00:00:00 | 00:00:00 | 00:00:00 | |
| KE7DJD | 2026-09-03 14:56:58 | 44.79120 | -118.12434 | 44° | 77km/h | 5628m | 6.3m/s | -8.8°C | 0% | 0hPa | 0V | 00:00:00 | 00:00:00 | 00:00:00 | |
| KE7DJD | 2026-09-03 14:56:37 | 44.78873 | -118.12828 | 41° | 51km/h | 5488m | 7.9m/s | -7.9°C | 0% | 0hPa | 0V | 00:00:00 | 00:00:00 | 00:00:00 | |
| KE7DJD | 2026-09-03 14:56:15 | 44.78643 | -118.13160 | 47° | 77km/h | 5348m | 5.9m/s | -7.1°C | 0% | 0hPa | 0V | 00:00:00 | 00:00:00 | 00:00:00 |